Terminal Aerodrome Forecast
Issued by NWS

Home | Current Version | Previous Version | Graphics & Text | Print | Product List | Glossary On
Versions: 1 2 3 4 5 6 7 8 9 10 11 12 13 14 15 16 17 18 19 20 21 22
000
FTUS43 KGRB 210500
TAFCWA
TAF
KCWA 210520Z 2106/2206 16004KT 5SM BR OVC012
     FM210900 16005KT 4SM -FZDZ BR OVC009
     FM211500 15008KT 6SM -DZ BR OVC015
     FM212100 15010KT 5SM -DZSN BR OVC012
     FM220100 15009KT 3SM -SN BR OVC009
      AMD LTD TO CLD VIS AND WIND TIL 211200=

USA.gov is the U.S. government's official web portal to all federal, state and local government web resources and services.